48I weather

Braxton County Airport
Sutton, West Virginia, United States

Public forecast

Using degrees Fahrenheit for public forecast. Weather courtesy of forecast.io.

Current aviation weather report (METAR) for Braxton County Airport

Report is more than 6 hours old.

Retrieved 2009/08/14 19:00 UTC (11 years ago):

K48I 141900Z AUTO 00000KT 10SM SCT015 SCT044 SCT075 27/18 A3018 RMK AO2

Closest aviation forecast (TAF) to Braxton County Airport

Closest forecast is Elkins-Randolph Co-Jennings Randolph Field, 39.1 nm (72.5 km) ENE. Retrieved 2020/05/25 18:36 UTC (3 hours ago):

TAF KEKN 251734Z 2518/2618 09004KT P6SM SCT060 FM260500 00000KT 5SM BR FEW200 FM260800 00000KT 2SM BR FEW002 FM261300 19002KT P6SM SCT050